Llaves, New Mexico
Current Conditions -  °F | °C
As of 1:15 AM on Thursday 29 Jan 2015 (Local Time) from KLAM Reporting Station
Clear Clear  
Wind Chill: 32°   Ceiling: Unl
Heat Index: 38°   Visibility: 10mi
Dew Point: 26°   Wind: 7mph
Humidity: 62%   Direction: 170°S
Pressure: 30.34"   Gusts: NA
Location:  36.1222°N, 107.006°W
Report Text: KLAM 290815Z AUTO 17006KT 10SM CLR 03/M03 A3034 RMK AO2 T00321035
Loading
Personal Weather Stations






























Interactive Weather Map New forecast layout! Learn more

10-Day Weather Forecast

Advertisements
Track Severe Weather on mobile